sensor_id;sensor_type;location;lat;lon;timestamp;pressure;altitude;pressure_sealevel;temperature;humidity
41062;BME280;26812;42.662;23.352;2023-07-29T00:01:13;94783.38;;;21.26;51.82
41062;BME280;26812;42.662;23.352;2023-07-29T00:03:38;94795.47;;;21.21;52.80
41062;BME280;26812;42.662;23.352;2023-07-29T00:06:04;94794.31;;;21.26;52.55
41062;BME280;26812;42.662;23.352;2023-07-29T00:08:29;94809.09;;;21.03;53.06
41062;BME280;26812;42.662;23.352;2023-07-29T00:10:54;94793.81;;;21.02;52.86
41062;BME280;26812;42.662;23.352;2023-07-29T00:13:20;94796.59;;;21.09;52.28
41062;BME280;26812;42.662;23.352;2023-07-29T00:15:45;94795.78;;;21.09;52.18
41062;BME280;26812;42.662;23.352;2023-07-29T00:18:11;94801.03;;;21.50;51.11
41062;BME280;26812;42.662;23.352;2023-07-29T00:20:36;94803.00;;;21.46;50.93
41062;BME280;26812;42.662;23.352;2023-07-29T00:23:01;94791.97;;;21.28;51.26
41062;BME280;26812;42.662;23.352;2023-07-29T00:25:27;94795.06;;;21.23;51.73
41062;BME280;26812;42.662;23.352;2023-07-29T00:27:56;94791.19;;;21.31;51.33
41062;BME280;26812;42.662;23.352;2023-07-29T00:30:21;94799.31;;;21.09;51.90
41062;BME280;26812;42.662;23.352;2023-07-29T00:32:47;94778.63;;;21.19;51.44
41062;BME280;26812;42.662;23.352;2023-07-29T00:35:12;94799.06;;;21.43;51.33
41062;BME280;26812;42.662;23.352;2023-07-29T00:37:38;94801.00;;;21.35;51.52
41062;BME280;26812;42.662;23.352;2023-07-29T00:40:19;94794.22;;;21.01;51.88
41062;BME280;26812;42.662;23.352;2023-07-29T00:42:44;94779.03;;;21.18;51.12
41062;BME280;26812;42.662;23.352;2023-07-29T00:45:10;94779.69;;;20.86;52.02
41062;BME280;26812;42.662;23.352;2023-07-29T00:47:36;94775.28;;;20.57;52.62
41062;BME280;26812;42.662;23.352;2023-07-29T00:50:02;94781.22;;;20.80;52.34
41062;BME280;26812;42.662;23.352;2023-07-29T00:52:27;94773.94;;;21.16;51.01
41062;BME280;26812;42.662;23.352;2023-07-29T00:54:52;94774.72;;;21.20;51.14
41062;BME280;26812;42.662;23.352;2023-07-29T00:57:19;94780.50;;;20.94;52.06
41062;BME280;26812;42.662;23.352;2023-07-29T00:59:44;94769.78;;;20.57;53.10
41062;BME280;26812;42.662;23.352;2023-07-29T01:02:10;94768.31;;;20.11;54.14
41062;BME280;26812;42.662;23.352;2023-07-29T01:04:35;94781.38;;;20.36;54.19
41062;BME280;26812;42.662;23.352;2023-07-29T01:10:17;94779.03;;;20.34;54.73
41062;BME280;26812;42.662;23.352;2023-07-29T01:12:48;94777.66;;;20.69;53.42
41062;BME280;26812;42.662;23.352;2023-07-29T01:15:24;94781.25;;;20.84;53.03
41062;BME280;26812;42.662;23.352;2023-07-29T01:18:03;94779.41;;;20.33;54.25
41062;BME280;26812;42.662;23.352;2023-07-29T01:20:34;94779.19;;;20.59;53.85
41062;BME280;26812;42.662;23.352;2023-07-29T01:23:01;94762.47;;;20.16;54.81
41062;BME280;26812;42.662;23.352;2023-07-29T01:25:27;94779.22;;;20.66;53.93
41062;BME280;26812;42.662;23.352;2023-07-29T01:27:52;94782.22;;;20.43;54.60
41062;BME280;26812;42.662;23.352;2023-07-29T01:30:19;94776.91;;;20.75;53.53
41062;BME280;26812;42.662;23.352;2023-07-29T01:32:56;94788.19;;;20.63;54.01
41062;BME280;26812;42.662;23.352;2023-07-29T01:35:32;94743.88;;;19.78;55.55
41062;BME280;26812;42.662;23.352;2023-07-29T01:38:03;94776.72;;;20.40;54.89
41062;BME280;26812;42.662;23.352;2023-07-29T01:40:30;94776.75;;;20.43;54.79
41062;BME280;26812;42.662;23.352;2023-07-29T01:42:56;94763.38;;;20.31;54.71
41062;BME280;26812;42.662;23.352;2023-07-29T01:45:25;94757.00;;;20.16;55.22
41062;BME280;26812;42.662;23.352;2023-07-29T01:47:51;94781.50;;;20.54;54.38
41062;BME280;26812;42.662;23.352;2023-07-29T01:50:16;94780.59;;;20.35;54.89
41062;BME280;26812;42.662;23.352;2023-07-29T01:52:42;94777.38;;;19.68;56.86
41062;BME280;26812;42.662;23.352;2023-07-29T01:55:07;94785.88;;;20.10;55.79
41062;BME280;26812;42.662;23.352;2023-07-29T01:57:33;94765.06;;;19.92;56.12
41062;BME280;26812;42.662;23.352;2023-07-29T01:59:58;94778.97;;;20.24;55.70
41062;BME280;26812;42.662;23.352;2023-07-29T02:02:24;94766.13;;;19.80;56.58
41062;BME280;26812;42.662;23.352;2023-07-29T02:04:49;94786.88;;;19.88;56.80
41062;BME280;26812;42.662;23.352;2023-07-29T02:07:17;94771.03;;;20.08;56.10
41062;BME280;26812;42.662;23.352;2023-07-29T02:09:43;94777.06;;;19.80;57.30
41062;BME280;26812;42.662;23.352;2023-07-29T02:12:08;94782.53;;;19.80;57.30
41062;BME280;26812;42.662;23.352;2023-07-29T02:14:34;94777.41;;;19.71;57.73
41062;BME280;26812;42.662;23.352;2023-07-29T02:16:59;94784.63;;;19.97;56.80
41062;BME280;26812;42.662;23.352;2023-07-29T02:19:24;94779.53;;;19.92;56.94
41062;BME280;26812;42.662;23.352;2023-07-29T02:21:50;94792.16;;;20.11;56.54
41062;BME280;26812;42.662;23.352;2023-07-29T02:24:15;94778.63;;;19.81;57.43
41062;BME280;26812;42.662;23.352;2023-07-29T02:26:41;94800.72;;;20.06;56.74
41062;BME280;26812;42.662;23.352;2023-07-29T02:29:07;94786.72;;;19.63;57.70
41062;BME280;26812;42.662;23.352;2023-07-29T02:31:32;94789.69;;;19.92;56.98
41062;BME280;26812;42.662;23.352;2023-07-29T02:33:59;94796.34;;;19.94;56.57
41062;BME280;26812;42.662;23.352;2023-07-29T02:36:25;94782.84;;;19.68;57.59
41062;BME280;26812;42.662;23.352;2023-07-29T02:38:50;94793.09;;;19.41;57.92
41062;BME280;26812;42.662;23.352;2023-07-29T02:41:16;94772.44;;;19.43;57.86
41062;BME280;26812;42.662;23.352;2023-07-29T02:43:43;94793.56;;;19.09;58.72
41062;BME280;26812;42.662;23.352;2023-07-29T02:46:15;94779.38;;;19.34;57.96
41062;BME280;26812;42.662;23.352;2023-07-29T02:48:41;94776.44;;;19.53;57.31
41062;BME280;26812;42.662;23.352;2023-07-29T02:51:06;94779.69;;;19.62;57.04
41062;BME280;26812;42.662;23.352;2023-07-29T02:53:32;94786.09;;;19.84;56.16
41062;BME280;26812;42.662;23.352;2023-07-29T02:55:57;94787.91;;;19.66;56.56
41062;BME280;26812;42.662;23.352;2023-07-29T02:58:23;94791.13;;;19.38;57.57
41062;BME280;26812;42.662;23.352;2023-07-29T03:00:48;94788.59;;;19.59;56.72
41062;BME280;26812;42.662;23.352;2023-07-29T03:03:14;94797.00;;;19.40;57.38
41062;BME280;26812;42.662;23.352;2023-07-29T03:05:39;94798.69;;;19.14;57.88
41062;BME280;26812;42.662;23.352;2023-07-29T03:08:05;94758.19;;;18.86;58.05
41062;BME280;26812;42.662;23.352;2023-07-29T03:10:30;94796.53;;;19.31;57.48
41062;BME280;26812;42.662;23.352;2023-07-29T03:12:56;94812.78;;;19.57;56.72
41062;BME280;26812;42.662;23.352;2023-07-29T03:15:24;94807.09;;;19.36;56.79
41062;BME280;26812;42.662;23.352;2023-07-29T03:17:50;94810.78;;;19.17;57.50
41062;BME280;26812;42.662;23.352;2023-07-29T03:20:16;94804.69;;;19.68;56.41
41062;BME280;26812;42.662;23.352;2023-07-29T03:22:43;94800.59;;;19.51;56.87
41062;BME280;26812;42.662;23.352;2023-07-29T03:25:08;94812.50;;;19.66;56.93
41062;BME280;26812;42.662;23.352;2023-07-29T03:27:34;94784.13;;;19.40;57.33
41062;BME280;26812;42.662;23.352;2023-07-29T03:30:02;94816.47;;;19.75;56.58
41062;BME280;26812;42.662;23.352;2023-07-29T03:32:27;94812.16;;;19.71;56.09
41062;BME280;26812;42.662;23.352;2023-07-29T03:34:53;94808.16;;;19.61;56.46
41062;BME280;26812;42.662;23.352;2023-07-29T03:37:19;94823.72;;;19.57;57.05
41062;BME280;26812;42.662;23.352;2023-07-29T03:39:45;94817.78;;;19.51;56.75
41062;BME280;26812;42.662;23.352;2023-07-29T03:42:10;94810.38;;;19.52;56.84
41062;BME280;26812;42.662;23.352;2023-07-29T03:44:36;94803.84;;;19.23;57.79
41062;BME280;26812;42.662;23.352;2023-07-29T03:47:01;94816.88;;;19.37;58.25
41062;BME280;26812;42.662;23.352;2023-07-29T03:49:26;94800.84;;;19.72;57.17
41062;BME280;26812;42.662;23.352;2023-07-29T03:51:52;94793.72;;;20.15;55.29
41062;BME280;26812;42.662;23.352;2023-07-29T03:54:17;94815.84;;;20.44;54.92
41062;BME280;26812;42.662;23.352;2023-07-29T03:56:42;94797.97;;;20.64;53.88
41062;BME280;26812;42.662;23.352;2023-07-29T03:59:08;94788.59;;;20.65;52.90
41062;BME280;26812;42.662;23.352;2023-07-29T04:01:33;94788.63;;;20.10;53.80
41062;BME280;26812;42.662;23.352;2023-07-29T04:03:59;94804.03;;;20.36;53.84
41062;BME280;26812;42.662;23.352;2023-07-29T04:06:24;94805.31;;;20.50;52.75
41062;BME280;26812;42.662;23.352;2023-07-29T04:08:50;94822.09;;;20.48;52.61
41062;BME280;26812;42.662;23.352;2023-07-29T04:11:15;94812.06;;;20.11;53.61
41062;BME280;26812;42.662;23.352;2023-07-29T04:13:41;94824.59;;;20.16;54.50
41062;BME280;26812;42.662;23.352;2023-07-29T04:16:07;94832.00;;;20.12;54.31
41062;BME280;26812;42.662;23.352;2023-07-29T04:18:32;94811.53;;;20.43;53.38
41062;BME280;26812;42.662;23.352;2023-07-29T04:20:58;94825.72;;;20.59;53.37
41062;BME280;26812;42.662;23.352;2023-07-29T04:23:23;94819.03;;;20.53;53.27
41062;BME280;26812;42.662;23.352;2023-07-29T04:25:48;94805.78;;;20.07;52.56
41062;BME280;26812;42.662;23.352;2023-07-29T04:28:15;94820.31;;;20.19;52.46
41062;BME280;26812;42.662;23.352;2023-07-29T04:30:40;94801.19;;;20.19;52.44
41062;BME280;26812;42.662;23.352;2023-07-29T04:33:06;94814.13;;;20.22;52.67
41062;BME280;26812;42.662;23.352;2023-07-29T04:35:31;94812.06;;;20.08;52.69
41062;BME280;26812;42.662;23.352;2023-07-29T04:37:56;94817.28;;;20.27;52.35
41062;BME280;26812;42.662;23.352;2023-07-29T04:40:22;94830.63;;;19.88;52.92
41062;BME280;26812;42.662;23.352;2023-07-29T04:42:48;94832.03;;;20.15;52.19
41062;BME280;26812;42.662;23.352;2023-07-29T04:45:13;94822.94;;;20.01;52.28
41062;BME280;26812;42.662;23.352;2023-07-29T04:47:39;94820.59;;;19.99;52.34
41062;BME280;26812;42.662;23.352;2023-07-29T04:50:05;94809.66;;;19.99;52.39
41062;BME280;26812;42.662;23.352;2023-07-29T04:52:31;94802.34;;;20.17;51.71
41062;BME280;26812;42.662;23.352;2023-07-29T04:54:56;94823.56;;;20.35;51.32
41062;BME280;26812;42.662;23.352;2023-07-29T04:57:22;94824.97;;;20.66;50.56
41062;BME280;26812;42.662;23.352;2023-07-29T04:59:47;94811.16;;;20.44;50.51
41062;BME280;26812;42.662;23.352;2023-07-29T05:02:12;94804.41;;;20.35;50.77
41062;BME280;26812;42.662;23.352;2023-07-29T05:04:38;94835.88;;;20.59;50.68
41062;BME280;26812;42.662;23.352;2023-07-29T05:07:03;94837.22;;;20.90;50.19
41062;BME280;26812;42.662;23.352;2023-07-29T05:09:29;94816.94;;;21.08;49.24
41062;BME280;26812;42.662;23.352;2023-07-29T05:11:54;94828.41;;;21.43;48.37
41062;BME280;26812;42.662;23.352;2023-07-29T05:14:20;94832.03;;;21.75;47.68
41062;BME280;26812;42.662;23.352;2023-07-29T05:16:45;94849.25;;;21.97;47.02
41062;BME280;26812;42.662;23.352;2023-07-29T05:19:11;94836.28;;;21.69;47.42
41062;BME280;26812;42.662;23.352;2023-07-29T05:21:37;94847.59;;;21.43;48.62
41062;BME280;26812;42.662;23.352;2023-07-29T05:24:03;94833.88;;;21.39;48.66
41062;BME280;26812;42.662;23.352;2023-07-29T05:26:29;94837.50;;;21.75;48.02
41062;BME280;26812;42.662;23.352;2023-07-29T05:28:54;94852.00;;;22.00;46.73
41062;BME280;26812;42.662;23.352;2023-07-29T05:31:20;94842.94;;;21.64;47.79
41062;BME280;26812;42.662;23.352;2023-07-29T05:33:45;94850.44;;;21.75;48.11
41062;BME280;26812;42.662;23.352;2023-07-29T05:36:10;94855.19;;;22.06;47.32
41062;BME280;26812;42.662;23.352;2023-07-29T05:38:42;94854.00;;;22.36;46.45
41062;BME280;26812;42.662;23.352;2023-07-29T05:41:08;94852.44;;;22.38;46.41
41062;BME280;26812;42.662;23.352;2023-07-29T05:43:33;94859.06;;;22.58;46.06
41062;BME280;26812;42.662;23.352;2023-07-29T05:45:58;94818.72;;;22.38;45.80
41062;BME280;26812;42.662;23.352;2023-07-29T05:48:24;94855.16;;;22.45;46.26
41062;BME280;26812;42.662;23.352;2023-07-29T05:50:49;94859.06;;;22.62;45.28
41062;BME280;26812;42.662;23.352;2023-07-29T05:53:15;94853.94;;;22.75;45.08
41062;BME280;26812;42.662;23.352;2023-07-29T05:55:40;94834.72;;;22.75;44.78
41062;BME280;26812;42.662;23.352;2023-07-29T05:58:06;94861.78;;;22.87;44.98
41062;BME280;26812;42.662;23.352;2023-07-29T06:00:31;94845.69;;;22.89;45.06
41062;BME280;26812;42.662;23.352;2023-07-29T06:02:57;94851.84;;;23.21;44.88
41062;BME280;26812;42.662;23.352;2023-07-29T06:05:22;94843.22;;;23.27;44.36
41062;BME280;26812;42.662;23.352;2023-07-29T06:07:47;94860.78;;;23.47;43.94
41062;BME280;26812;42.662;23.352;2023-07-29T06:10:14;94864.66;;;23.64;43.51
41062;BME280;26812;42.662;23.352;2023-07-29T06:12:43;94860.91;;;23.15;44.15
41062;BME280;26812;42.662;23.352;2023-07-29T06:15:09;94857.66;;;23.41;44.76
41062;BME280;26812;42.662;23.352;2023-07-29T06:17:34;94845.84;;;23.59;44.02
41062;BME280;26812;42.662;23.352;2023-07-29T06:19:59;94842.97;;;23.76;42.66
41062;BME280;26812;42.662;23.352;2023-07-29T06:22:25;94834.25;;;23.85;42.58
41062;BME280;26812;42.662;23.352;2023-07-29T06:24:50;94848.28;;;24.01;42.68
41062;BME280;26812;42.662;23.352;2023-07-29T06:27:16;94847.28;;;24.33;41.50
41062;BME280;26812;42.662;23.352;2023-07-29T06:29:41;94851.50;;;24.44;41.96
41062;BME280;26812;42.662;23.352;2023-07-29T06:32:07;94845.22;;;24.44;42.51
41062;BME280;26812;42.662;23.352;2023-07-29T06:34:32;94838.22;;;24.36;42.28
41062;BME280;26812;42.662;23.352;2023-07-29T06:36:57;94829.28;;;24.66;41.51
41062;BME280;26812;42.662;23.352;2023-07-29T06:39:23;94813.94;;;24.65;41.84
41062;BME280;26812;42.662;23.352;2023-07-29T06:41:48;94824.38;;;24.84;41.49
41062;BME280;26812;42.662;23.352;2023-07-29T06:44:13;94828.94;;;24.98;40.40
41062;BME280;26812;42.662;23.352;2023-07-29T06:46:46;94829.59;;;25.09;41.25
41062;BME280;26812;42.662;23.352;2023-07-29T06:49:11;94831.09;;;25.17;40.60
41062;BME280;26812;42.662;23.352;2023-07-29T06:51:37;94822.38;;;25.22;40.92
41062;BME280;26812;42.662;23.352;2023-07-29T06:54:02;94827.72;;;25.67;40.57
41062;BME280;26812;42.662;23.352;2023-07-29T06:56:28;94819.63;;;25.53;39.99
41062;BME280;26812;42.662;23.352;2023-07-29T06:58:53;94818.06;;;25.52;39.86
41062;BME280;26812;42.662;23.352;2023-07-29T07:01:19;94825.34;;;25.35;40.44
41062;BME280;26812;42.662;23.352;2023-07-29T07:03:44;94829.81;;;24.91;41.59
41062;BME280;26812;42.662;23.352;2023-07-29T07:06:09;94814.38;;;25.31;41.54
41062;BME280;26812;42.662;23.352;2023-07-29T07:08:35;94832.72;;;25.76;40.55
41062;BME280;26812;42.662;23.352;2023-07-29T07:11:00;94834.38;;;25.69;40.69
41062;BME280;26812;42.662;23.352;2023-07-29T07:13:26;94813.91;;;25.67;40.49
41062;BME280;26812;42.662;23.352;2023-07-29T07:15:54;94838.25;;;25.76;40.85
41062;BME280;26812;42.662;23.352;2023-07-29T07:18:20;94825.69;;;25.98;40.56
41062;BME280;26812;42.662;23.352;2023-07-29T07:20:50;94831.56;;;26.00;39.69
41062;BME280;26812;42.662;23.352;2023-07-29T07:23:17;94830.50;;;26.17;39.42
41062;BME280;26812;42.662;23.352;2023-07-29T07:25:42;94825.59;;;26.75;38.18
41062;BME280;26812;42.662;23.352;2023-07-29T07:28:08;94817.53;;;26.65;38.69
41062;BME280;26812;42.662;23.352;2023-07-29T07:30:34;94823.69;;;26.49;38.69
41062;BME280;26812;42.662;23.352;2023-07-29T07:32:59;94823.69;;;26.72;37.56
41062;BME280;26812;42.662;23.352;2023-07-29T07:35:24;94799.34;;;26.44;37.60
41062;BME280;26812;42.662;23.352;2023-07-29T07:37:50;94826.91;;;26.20;38.29
41062;BME280;26812;42.662;23.352;2023-07-29T07:40:15;94827.53;;;26.55;38.27
41062;BME280;26812;42.662;23.352;2023-07-29T07:42:41;94813.91;;;26.87;38.25
41062;BME280;26812;42.662;23.352;2023-07-29T07:45:06;94817.13;;;26.63;38.41
41062;BME280;26812;42.662;23.352;2023-07-29T07:47:31;94800.88;;;26.88;38.46
41062;BME280;26812;42.662;23.352;2023-07-29T07:49:57;94826.28;;;27.22;38.13
41062;BME280;26812;42.662;23.352;2023-07-29T07:52:22;94809.13;;;27.31;37.40
41062;BME280;26812;42.662;23.352;2023-07-29T07:54:54;94823.78;;;27.68;37.44
41062;BME280;26812;42.662;23.352;2023-07-29T07:57:21;94818.56;;;27.90;35.88
41062;BME280;26812;42.662;23.352;2023-07-29T07:59:46;94829.56;;;27.93;35.89
41062;BME280;26812;42.662;23.352;2023-07-29T08:02:12;94813.81;;;27.90;35.55
41062;BME280;26812;42.662;23.352;2023-07-29T08:04:37;94826.34;;;27.95;34.93
41062;BME280;26812;42.662;23.352;2023-07-29T08:07:03;94819.44;;;27.31;36.61
41062;BME280;26812;42.662;23.352;2023-07-29T08:09:28;94822.38;;;27.40;36.07
41062;BME280;26812;42.662;23.352;2023-07-29T08:11:53;94815.22;;;27.42;35.77
41062;BME280;26812;42.662;23.352;2023-07-29T08:14:19;94810.13;;;27.77;35.01
41062;BME280;26812;42.662;23.352;2023-07-29T08:16:44;94808.06;;;27.65;35.67
41062;BME280;26812;42.662;23.352;2023-07-29T08:19:09;94814.84;;;27.96;35.34
41062;BME280;26812;42.662;23.352;2023-07-29T08:21:35;94837.63;;;28.20;34.91
41062;BME280;26812;42.662;23.352;2023-07-29T08:24:01;94826.41;;;28.27;34.33
41062;BME280;26812;42.662;23.352;2023-07-29T08:26:26;94830.44;;;28.23;34.50
41062;BME280;26812;42.662;23.352;2023-07-29T08:28:52;94814.59;;;28.23;33.90
41062;BME280;26812;42.662;23.352;2023-07-29T08:31:17;94816.44;;;28.30;34.16
41062;BME280;26812;42.662;23.352;2023-07-29T08:33:43;94822.28;;;28.64;34.08
41062;BME280;26812;42.662;23.352;2023-07-29T08:36:08;94827.31;;;28.69;33.18
41062;BME280;26812;42.662;23.352;2023-07-29T08:38:33;94814.41;;;28.63;32.86
41062;BME280;26812;42.662;23.352;2023-07-29T08:41:13;94825.94;;;28.61;33.10
41062;BME280;26812;42.662;23.352;2023-07-29T08:43:44;94826.81;;;29.03;32.30
41062;BME280;26812;42.662;23.352;2023-07-29T08:46:13;94809.63;;;28.80;32.76
41062;BME280;26812;42.662;23.352;2023-07-29T08:48:42;94806.78;;;29.12;32.26
41062;BME280;26812;42.662;23.352;2023-07-29T08:51:12;94806.72;;;29.28;31.98
41062;BME280;26812;42.662;23.352;2023-07-29T08:53:38;94810.38;;;29.25;31.22
41062;BME280;26812;42.662;23.352;2023-07-29T08:56:05;94794.72;;;28.90;31.57
41062;BME280;26812;42.662;23.352;2023-07-29T08:58:31;94802.16;;;28.93;31.89
41062;BME280;26812;42.662;23.352;2023-07-29T09:00:57;94792.91;;;29.12;30.72
41062;BME280;26812;42.662;23.352;2023-07-29T09:03:23;94794.28;;;29.33;30.60
41062;BME280;26812;42.662;23.352;2023-07-29T09:05:48;94791.75;;;29.38;30.88
41062;BME280;26812;42.662;23.352;2023-07-29T09:08:14;94783.84;;;29.37;30.50
41062;BME280;26812;42.662;23.352;2023-07-29T09:10:40;94792.28;;;29.75;30.23
41062;BME280;26812;42.662;23.352;2023-07-29T09:13:06;94788.47;;;29.69;31.12
41062;BME280;26812;42.662;23.352;2023-07-29T09:15:35;94783.38;;;29.93;29.56
41062;BME280;26812;42.662;23.352;2023-07-29T09:18:18;94785.34;;;30.31;28.04
41062;BME280;26812;42.662;23.352;2023-07-29T09:20:46;94776.94;;;29.96;28.08
41062;BME280;26812;42.662;23.352;2023-07-29T09:23:11;94779.16;;;29.88;28.17
41062;BME280;26812;42.662;23.352;2023-07-29T09:25:37;94770.50;;;29.61;27.82
41062;BME280;26812;42.662;23.352;2023-07-29T09:28:08;94762.31;;;29.28;29.70
41062;BME280;26812;42.662;23.352;2023-07-29T09:30:34;94771.41;;;29.16;30.44
41062;BME280;26812;42.662;23.352;2023-07-29T09:33:00;94762.16;;;29.48;29.18
41062;BME280;26812;42.662;23.352;2023-07-29T09:35:28;94768.16;;;29.85;28.54
41062;BME280;26812;42.662;23.352;2023-07-29T09:37:53;94762.16;;;29.86;29.77
41062;BME280;26812;42.662;23.352;2023-07-29T09:40:25;94762.34;;;30.30;29.15
41062;BME280;26812;42.662;23.352;2023-07-29T09:42:52;94732.41;;;30.12;26.83
41062;BME280;26812;42.662;23.352;2023-07-29T09:45:22;94753.94;;;30.55;28.12
41062;BME280;26812;42.662;23.352;2023-07-29T09:47:47;94751.66;;;30.41;27.33
41062;BME280;26812;42.662;23.352;2023-07-29T09:50:13;94751.50;;;30.70;27.30
41062;BME280;26812;42.662;23.352;2023-07-29T09:52:39;94751.81;;;30.72;27.73
41062;BME280;26812;42.662;23.352;2023-07-29T09:55:16;94747.28;;;30.87;27.57
41062;BME280;26812;42.662;23.352;2023-07-29T09:57:42;94753.75;;;30.63;27.00
41062;BME280;26812;42.662;23.352;2023-07-29T10:00:10;94715.25;;;30.61;28.09
41062;BME280;26812;42.662;23.352;2023-07-29T10:02:38;94741.94;;;30.93;27.08
41062;BME280;26812;42.662;23.352;2023-07-29T10:05:04;94745.44;;;31.28;26.57
41062;BME280;26812;42.662;23.352;2023-07-29T10:07:31;94733.72;;;31.11;26.18
41062;BME280;26812;42.662;23.352;2023-07-29T10:09:57;94737.22;;;31.03;26.12
41062;BME280;26812;42.662;23.352;2023-07-29T10:12:25;94743.16;;;31.36;25.60
41062;BME280;26812;42.662;23.352;2023-07-29T10:14:52;94740.78;;;31.25;25.93
41062;BME280;26812;42.662;23.352;2023-07-29T10:17:19;94719.75;;;31.02;25.17
41062;BME280;26812;42.662;23.352;2023-07-29T10:19:46;94728.47;;;30.92;25.41
41062;BME280;26812;42.662;23.352;2023-07-29T10:22:13;94715.88;;;31.00;25.53
41062;BME280;26812;42.662;23.352;2023-07-29T10:24:42;94717.22;;;31.17;25.04
41062;BME280;26812;42.662;23.352;2023-07-29T10:27:11;94712.09;;;31.15;26.72
41062;BME280;26812;42.662;23.352;2023-07-29T10:29:39;94696.59;;;31.27;25.54
41062;BME280;26812;42.662;23.352;2023-07-29T10:32:09;94711.81;;;31.44;24.72
41062;BME280;26812;42.662;23.352;2023-07-29T10:34:36;94709.63;;;31.39;24.42
41062;BME280;26812;42.662;23.352;2023-07-29T10:37:02;94710.19;;;31.56;24.50
41062;BME280;26812;42.662;23.352;2023-07-29T10:39:37;94702.38;;;31.42;24.05
41062;BME280;26812;42.662;23.352;2023-07-29T10:42:05;94704.28;;;31.54;24.62
41062;BME280;26812;42.662;23.352;2023-07-29T10:47:13;94694.59;;;31.68;24.70
41062;BME280;26812;42.662;23.352;2023-07-29T10:49:42;94700.31;;;31.64;24.78
41062;BME280;26812;42.662;23.352;2023-07-29T10:52:08;94687.13;;;31.96;24.66
41062;BME280;26812;42.662;23.352;2023-07-29T10:54:46;94694.59;;;32.17;24.67
41062;BME280;26812;42.662;23.352;2023-07-29T10:57:16;94666.53;;;31.93;25.07
41062;BME280;26812;42.662;23.352;2023-07-29T11:00:03;94685.50;;;32.44;23.86
41062;BME280;26812;42.662;23.352;2023-07-29T11:02:32;94690.00;;;32.32;23.66
41062;BME280;26812;42.662;23.352;2023-07-29T11:05:22;94684.88;;;32.40;23.83
41062;BME280;26812;42.662;23.352;2023-07-29T11:07:48;94666.44;;;32.33;23.60
41062;BME280;26812;42.662;23.352;2023-07-29T11:10:14;94672.66;;;32.56;23.87
41062;BME280;26812;42.662;23.352;2023-07-29T11:12:46;94670.63;;;32.93;22.54
41062;BME280;26812;42.662;23.352;2023-07-29T11:15:25;94671.72;;;32.59;22.58
41062;BME280;26812;42.662;23.352;2023-07-29T11:18:01;94669.38;;;32.30;23.13
41062;BME280;26812;42.662;23.352;2023-07-29T11:20:31;94669.25;;;32.52;23.43
41062;BME280;26812;42.662;23.352;2023-07-29T11:22:59;94671.25;;;32.69;21.66
41062;BME280;26812;42.662;23.352;2023-07-29T11:25:27;94664.91;;;32.78;22.28
41062;BME280;26812;42.662;23.352;2023-07-29T11:27:54;94648.63;;;32.86;22.26
41062;BME280;26812;42.662;23.352;2023-07-29T11:30:20;94660.69;;;33.01;22.80
41062;BME280;26812;42.662;23.352;2023-07-29T11:32:46;94665.97;;;33.08;22.48
41062;BME280;26812;42.662;23.352;2023-07-29T11:35:14;94661.25;;;33.23;22.33
41062;BME280;26812;42.662;23.352;2023-07-29T11:37:46;94662.19;;;33.20;21.42
41062;BME280;26812;42.662;23.352;2023-07-29T11:40:16;94646.09;;;33.06;21.50
41062;BME280;26812;42.662;23.352;2023-07-29T11:42:42;94640.25;;;32.67;22.42
41062;BME280;26812;42.662;23.352;2023-07-29T11:45:08;94625.84;;;32.87;22.21
41062;BME280;26812;42.662;23.352;2023-07-29T11:47:34;94642.00;;;33.34;22.05
41062;BME280;26812;42.662;23.352;2023-07-29T11:50:05;94644.78;;;33.34;22.24
41062;BME280;26812;42.662;23.352;2023-07-29T11:52:38;94636.06;;;33.51;22.50
41062;BME280;26812;42.662;23.352;2023-07-29T11:55:05;94637.66;;;33.43;22.15
41062;BME280;26812;42.662;23.352;2023-07-29T11:57:34;94641.31;;;33.82;21.13
41062;BME280;26812;42.662;23.352;2023-07-29T12:00:02;94647.25;;;33.75;21.53
41062;BME280;26812;42.662;23.352;2023-07-29T12:02:29;94627.97;;;33.53;21.18
41062;BME280;26812;42.662;23.352;2023-07-29T12:04:55;94634.19;;;33.81;21.13
41062;BME280;26812;42.662;23.352;2023-07-29T12:07:22;94625.22;;;33.77;20.90
41062;BME280;26812;42.662;23.352;2023-07-29T12:09:48;94615.09;;;33.79;21.30
41062;BME280;26812;42.662;23.352;2023-07-29T12:12:14;94603.78;;;33.83;20.38
41062;BME280;26812;42.662;23.352;2023-07-29T12:14:46;94617.53;;;32.51;21.36
41062;BME280;26812;42.662;23.352;2023-07-29T12:17:14;94582.66;;;32.37;22.18
41062;BME280;26812;42.662;23.352;2023-07-29T12:19:41;94607.84;;;32.97;21.51
41062;BME280;26812;42.662;23.352;2023-07-29T12:22:09;94610.53;;;33.25;20.99
41062;BME280;26812;42.662;23.352;2023-07-29T12:24:37;94607.47;;;33.56;21.16
41062;BME280;26812;42.662;23.352;2023-07-29T12:27:03;94613.53;;;33.87;20.91
41062;BME280;26812;42.662;23.352;2023-07-29T12:29:29;94614.59;;;33.90;21.48
41062;BME280;26812;42.662;23.352;2023-07-29T12:32:03;94605.84;;;33.97;21.11
41062;BME280;26812;42.662;23.352;2023-07-29T12:34:31;94601.97;;;34.18;20.79
41062;BME280;26812;42.662;23.352;2023-07-29T12:36:59;94604.19;;;33.90;21.68
41062;BME280;26812;42.662;23.352;2023-07-29T12:39:29;94580.06;;;34.02;20.69
41062;BME280;26812;42.662;23.352;2023-07-29T12:41:57;94593.28;;;34.16;20.47
41062;BME280;26812;42.662;23.352;2023-07-29T12:44:24;94606.91;;;34.23;19.99
41062;BME280;26812;42.662;23.352;2023-07-29T12:46:50;94603.00;;;34.06;20.14
41062;BME280;26812;42.662;23.352;2023-07-29T12:49:15;94591.09;;;33.97;20.50
41062;BME280;26812;42.662;23.352;2023-07-29T12:51:41;94597.41;;;34.06;20.02
41062;BME280;26812;42.662;23.352;2023-07-29T12:54:06;94592.91;;;33.85;20.25